Terminal Aerodrome Forecast
Issued by NWS

Home | Current Version | Previous Version | Text Only | Print | Product List | Glossary On
Versions: 1 2 3 4 5 6 7 8 9 10 11 12 13 14 15 16 17 18 19 20 21
000
FTUS43 KIND 202331
TAFHUF
TAF
KHUF 202331Z 2100/2124 14007KT P6SM SCT250
     FM210900 17007KT P6SM BKN200
     FM211100 18006KT 5SM BR VCSH BKN150
     FM211700 21006KT 5SM BR VCSH OVC030
     FM211900 22006KT P6SM OVC015=

USA.gov is the U.S. government's official web portal to all federal, state and local government web resources and services.